Time;durP1;ratioP1;P1;durP2;ratioP2;P2;SDS_P1;SDS_P2;PMS_P1;PMS_P2;Temp;Humidity;BMP_temperature;BMP_pressure;BME280_temperature;BME280_humidity;BME280_pressure;Samples;Min_cycle;Max_cycle;Signal;HPM_P1;HPM_P2
2023/03/18 00:01:45;;;;;;;;;;;10.70;99.90;;;;;;5020872;28;19936;-61
2023/03/18 00:04:11;;;;;;;;;;;10.70;99.90;;;;;;5027214;28;19921;-63
2023/03/18 00:06:37;;;;;;;;;;;10.70;99.90;;;;;;5028434;28;19920;-63
2023/03/18 00:09:03;;;;;;;;;;;10.60;99.90;;;;;;5029489;28;19921;-62
2023/03/18 00:11:29;;;;;;;;;;;10.60;99.90;;;;;;5026383;28;20011;-63
2023/03/18 00:13:54;;;;;;;;;;;10.60;99.90;;;;;;5033398;28;20000;-63
2023/03/18 00:16:20;;;;;;;;;;;10.50;99.90;;;;;;5026982;28;20267;-63
2023/03/18 00:18:46;;;;;;;;;;;10.50;99.90;;;;;;5029729;28;19913;-63
2023/03/18 00:21:11;;;;;;;;;;;10.50;99.90;;;;;;5027855;28;19913;-62
2023/03/18 00:23:37;;;;;;;;;;;10.50;99.90;;;;;;5029123;28;20014;-63
2023/03/18 00:26:03;;;;;;;;;;;10.50;99.90;;;;;;5028701;28;19921;-63
2023/03/18 00:28:30;;;;;;;;;;;10.50;99.90;;;;;;5031384;28;19959;-63
2023/03/18 00:31:00;;;;;;;;;;;10.60;99.90;;;;;;5030133;28;19967;-63
2023/03/18 00:33:25;;;;;;;;;;;10.60;99.90;;;;;;5030917;28;19913;-63
2023/03/18 00:35:52;;;;;;;;;;;10.70;99.90;;;;;;5035670;28;19919;-63
2023/03/18 00:38:20;;;;;;;;;;;10.60;99.90;;;;;;5033780;28;20007;-62
2023/03/18 00:40:52;;;;;;;;;;;10.70;99.90;;;;;;5030877;28;19917;-63
2023/03/18 00:43:22;;;;;;;;;;;10.60;99.90;;;;;;5029921;28;19967;-62
2023/03/18 00:45:49;;;;;;;;;;;10.50;99.90;;;;;;5025256;28;19921;-63
2023/03/18 00:48:15;;;;;;;;;;;10.50;99.90;;;;;;5030317;28;20523;-63
2023/03/18 00:50:40;;;;;;;;;;;10.50;99.90;;;;;;5031533;28;19913;-63
2023/03/18 00:53:06;;;;;;;;;;;10.50;99.90;;;;;;5031650;28;19959;-63
2023/03/18 00:55:31;;;;;;;;;;;10.60;99.90;;;;;;5029201;28;19974;-63
2023/03/18 00:57:57;;;;;;;;;;;10.50;99.90;;;;;;5029963;28;20013;-62
2023/03/18 01:00:24;;;;;;;;;;;10.60;99.90;;;;;;5029672;28;19931;-60
2023/03/18 01:02:49;;;;;;;;;;;10.60;99.90;;;;;;5030459;28;19928;-63
2023/03/18 01:05:15;;;;;;;;;;;10.60;99.90;;;;;;5030590;28;20302;-63
2023/03/18 01:07:41;;;;;;;;;;;10.60;99.90;;;;;;5033078;28;20287;-63
2023/03/18 01:10:08;;;;;;;;;;;10.70;99.90;;;;;;5028292;28;19913;-62
2023/03/18 01:12:33;;;;;;;;;;;10.80;99.90;;;;;;5029614;28;20360;-62
2023/03/18 01:14:59;;;;;;;;;;;10.80;99.90;;;;;;5035249;28;19967;-63
2023/03/18 01:17:24;;;;;;;;;;;10.80;99.90;;;;;;5031570;28;19925;-62
2023/03/18 01:19:50;;;;;;;;;;;10.90;99.90;;;;;;5029746;28;19968;-62
2023/03/18 01:22:15;;;;;;;;;;;10.90;99.90;;;;;;5033014;28;20007;-62
2023/03/18 01:24:41;;;;;;;;;;;10.80;99.90;;;;;;5029898;28;20051;-63
2023/03/18 01:27:07;;;;;;;;;;;10.80;99.90;;;;;;5032326;28;19920;-62
2023/03/18 01:29:34;;;;;;;;;;;10.70;99.90;;;;;;5027225;28;20271;-62
2023/03/18 01:31:59;;;;;;;;;;;10.70;99.90;;;;;;5036586;28;20005;-62
2023/03/18 01:34:25;;;;;;;;;;;10.70;99.90;;;;;;5035323;28;19972;-63
2023/03/18 01:36:50;;;;;;;;;;;10.60;99.90;;;;;;5017118;28;19969;-62
2023/03/18 01:39:16;;;;;;;;;;;10.60;99.90;;;;;;5034266;28;19913;-63
2023/03/18 01:41:43;;;;;;;;;;;10.60;99.90;;;;;;5029366;28;19921;-62
2023/03/18 01:44:13;;;;;;;;;;;10.60;99.90;;;;;;5032703;28;19917;-62
2023/03/18 01:46:40;;;;;;;;;;;10.70;99.90;;;;;;5032719;28;19920;-60
2023/03/18 01:49:15;;;;;;;;;;;10.70;99.90;;;;;;5031822;28;19925;-62
2023/03/18 01:51:42;;;;;;;;;;;10.70;99.90;;;;;;5032850;28;19913;-63
2023/03/18 01:54:07;;;;;;;;;;;10.70;99.90;;;;;;5031703;28;20007;-62
2023/03/18 01:56:35;;;;;;;;;;;10.80;99.90;;;;;;5031370;28;20011;-62
2023/03/18 01:59:02;;;;;;;;;;;10.80;99.90;;;;;;5032004;28;19975;-60
2023/03/18 02:01:29;;;;;;;;;;;10.80;99.90;;;;;;5029751;28;20338;-62
2023/03/18 02:03:55;;;;;;;;;;;10.70;99.90;;;;;;5029419;28;19924;-62
2023/03/18 02:06:21;;;;;;;;;;;10.70;99.90;;;;;;5029918;28;20284;-63
2023/03/18 02:08:48;;;;;;;;;;;10.60;99.90;;;;;;5026605;28;19917;-62
2023/03/18 02:11:13;;;;;;;;;;;10.50;99.90;;;;;;5029127;28;19921;-61
2023/03/18 02:13:41;;;;;;;;;;;10.50;99.90;;;;;;5030448;28;19976;-62
2023/03/18 02:16:22;;;;;;;;;;;10.40;99.90;;;;;;5031156;28;20559;-62
2023/03/18 02:18:53;;;;;;;;;;;10.40;99.90;;;;;;5029430;28;19920;-61
2023/03/18 02:21:19;;;;;;;;;;;10.30;99.90;;;;;;5029761;28;19913;-62
2023/03/18 02:23:48;;;;;;;;;;;10.30;99.90;;;;;;5031071;28;19917;-62
2023/03/18 02:26:32;;;;;;;;;;;10.30;99.90;;;;;;5031218;28;19928;-63
2023/03/18 02:29:02;;;;;;;;;;;10.30;99.90;;;;;;5028680;28;19987;-63
2023/03/18 02:31:28;;;;;;;;;;;10.30;99.90;;;;;;5033153;28;19913;-62
2023/03/18 02:33:54;;;;;;;;;;;10.30;99.90;;;;;;5031273;28;20016;-62
2023/03/18 02:36:25;;;;;;;;;;;10.30;99.90;;;;;;5033787;28;19948;-62
2023/03/18 02:38:50;;;;;;;;;;;10.30;99.90;;;;;;5030770;28;19913;-63
2023/03/18 02:41:17;;;;;;;;;;;10.30;99.90;;;;;;5029651;28;20506;-62
2023/03/18 02:43:43;;;;;;;;;;;10.20;99.90;;;;;;5030168;28;20390;-63
2023/03/18 02:46:28;;;;;;;;;;;10.10;99.90;;;;;;5024403;28;19967;-62
2023/03/18 02:48:54;;;;;;;;;;;10.00;99.90;;;;;;5031765;28;19924;-62
2023/03/18 02:51:19;;;;;;;;;;;10.00;99.90;;;;;;5029806;28;19913;-63
2023/03/18 02:53:45;;;;;;;;;;;10.00;99.90;;;;;;5031331;28;19913;-63
2023/03/18 02:56:11;;;;;;;;;;;10.00;99.90;;;;;;5029259;28;19953;-62
2023/03/18 02:58:36;;;;;;;;;;;10.00;99.90;;;;;;5026860;28;19953;-63
2023/03/18 03:01:06;;;;;;;;;;;9.90;99.90;;;;;;5026107;28;19921;-63
2023/03/18 03:03:33;;;;;;;;;;;9.70;99.90;;;;;;5027288;28;20372;-61
2023/03/18 03:05:59;;;;;;;;;;;9.70;99.90;;;;;;5027843;28;19929;-62
2023/03/18 03:08:25;;;;;;;;;;;9.60;99.90;;;;;;5027124;28;19976;-61
2023/03/18 03:10:51;;;;;;;;;;;9.60;99.90;;;;;;5031974;28;19948;-62
2023/03/18 03:13:18;;;;;;;;;;;9.60;99.90;;;;;;5032115;28;19913;-62
2023/03/18 03:15:43;;;;;;;;;;;9.60;99.90;;;;;;5032616;28;20409;-62
2023/03/18 03:18:09;;;;;;;;;;;9.50;99.90;;;;;;5028859;28;19913;-60
2023/03/18 03:20:36;;;;;;;;;;;9.50;99.90;;;;;;5033611;28;19909;-61
2023/03/18 03:23:05;;;;;;;;;;;9.50;99.90;;;;;;5029670;28;19996;-61
2023/03/18 03:25:31;;;;;;;;;;;9.50;99.90;;;;;;5030763;28;20322;-62
2023/03/18 03:27:57;;;;;;;;;;;9.50;99.90;;;;;;5028813;28;19914;-63
2023/03/18 03:30:22;;;;;;;;;;;9.40;99.90;;;;;;5027930;28;19921;-62
2023/03/18 03:32:48;;;;;;;;;;;9.20;99.90;;;;;;5028460;28;19913;-62
2023/03/18 03:35:15;;;;;;;;;;;9.00;99.90;;;;;;5025595;28;19924;-63
2023/03/18 03:37:41;;;;;;;;;;;8.70;99.90;;;;;;5028537;28;20311;-63
2023/03/18 03:40:07;;;;;;;;;;;8.60;99.90;;;;;;5027290;28;19921;-62
2023/03/18 03:42:32;;;;;;;;;;;8.40;99.90;;;;;;5026900;28;20119;-62
2023/03/18 03:44:58;;;;;;;;;;;8.30;99.90;;;;;;5028605;28;19916;-62
2023/03/18 03:47:23;;;;;;;;;;;8.30;99.90;;;;;;5026616;28;19920;-63
2023/03/18 03:49:49;;;;;;;;;;;8.20;99.90;;;;;;5027971;28;19913;-63
2023/03/18 03:52:17;;;;;;;;;;;8.20;99.90;;;;;;5009736;28;20383;-62
2023/03/18 03:54:42;;;;;;;;;;;8.10;99.90;;;;;;5030273;28;19983;-63
2023/03/18 03:57:08;;;;;;;;;;;8.10;99.90;;;;;;5028720;28;19913;-62
2023/03/18 03:59:33;;;;;;;;;;;8.00;99.90;;;;;;5028464;28;19963;-63
2023/03/18 04:01:59;;;;;;;;;;;8.00;99.90;;;;;;5024227;28;19944;-63
2023/03/18 04:04:25;;;;;;;;;;;8.00;99.90;;;;;;5028459;28;20423;-63
2023/03/18 04:06:50;;;;;;;;;;;8.00;99.90;;;;;;5027223;28;19919;-63
2023/03/18 04:09:16;;;;;;;;;;;8.10;99.90;;;;;;5030124;28;19913;-63
2023/03/18 04:11:43;;;;;;;;;;;8.10;99.90;;;;;;5027338;28;19917;-64
2023/03/18 04:14:09;;;;;;;;;;;8.00;99.90;;;;;;5027299;28;20268;-62
2023/03/18 04:16:34;;;;;;;;;;;8.00;99.90;;;;;;5026590;28;20012;-63
2023/03/18 04:18:59;;;;;;;;;;;7.80;99.90;;;;;;5028560;28;19975;-63
2023/03/18 04:21:26;;;;;;;;;;;7.70;99.90;;;;;;5027123;28;19921;-63
2023/03/18 04:23:52;;;;;;;;;;;7.80;99.90;;;;;;5027240;28;19925;-63
2023/03/18 04:26:17;;;;;;;;;;;7.80;99.90;;;;;;5031947;28;19920;-62
2023/03/18 04:28:43;;;;;;;;;;;7.90;99.90;;;;;;5028341;28;19917;-60
2023/03/18 04:31:08;;;;;;;;;;;7.90;99.90;;;;;;5027389;28;19958;-62
2023/03/18 04:33:34;;;;;;;;;;;7.90;99.90;;;;;;5033643;28;20015;-63
2023/03/18 04:35:59;;;;;;;;;;;7.90;99.90;;;;;;5036550;28;19921;-63
2023/03/18 04:38:27;;;;;;;;;;;7.80;99.90;;;;;;5029601;28;19932;-61
2023/03/18 04:40:52;;;;;;;;;;;7.70;99.90;;;;;;5029074;28;19916;-63
2023/03/18 04:43:18;;;;;;;;;;;7.70;99.90;;;;;;5029172;28;19913;-62
2023/03/18 04:45:44;;;;;;;;;;;7.70;99.90;;;;;;5027376;28;19921;-62
2023/03/18 04:48:09;;;;;;;;;;;7.70;99.90;;;;;;5028544;28;19913;-62
2023/03/18 04:50:35;;;;;;;;;;;7.70;99.90;;;;;;5030522;28;19913;-63
2023/03/18 04:53:00;;;;;;;;;;;7.60;99.90;;;;;;5025192;28;19913;-62
2023/03/18 04:55:26;;;;;;;;;;;7.60;99.90;;;;;;5030257;28;20302;-63
2023/03/18 04:57:51;;;;;;;;;;;7.60;99.90;;;;;;5027082;28;19913;-63
2023/03/18 05:00:21;;;;;;;;;;;7.70;99.90;;;;;;5026281;28;19913;-62
2023/03/18 05:02:46;;;;;;;;;;;7.70;99.90;;;;;;5028497;28;19913;-61
2023/03/18 05:05:12;;;;;;;;;;;7.60;99.90;;;;;;5027991;28;19975;-62
2023/03/18 05:07:38;;;;;;;;;;;7.70;99.90;;;;;;5028170;28;20382;-63
2023/03/18 05:10:05;;;;;;;;;;;7.70;99.90;;;;;;5029233;28;19913;-60
2023/03/18 05:12:31;;;;;;;;;;;7.70;99.90;;;;;;5036790;28;19931;-63
2023/03/18 05:14:56;;;;;;;;;;;7.60;99.90;;;;;;5027296;28;19917;-61
2023/03/18 05:17:22;;;;;;;;;;;7.60;99.90;;;;;;5031317;28;19921;-62
2023/03/18 05:19:48;;;;;;;;;;;7.70;99.90;;;;;;5032118;28;19917;-62
2023/03/18 05:22:15;;;;;;;;;;;7.70;99.90;;;;;;5032294;28;19917;-62
2023/03/18 05:24:42;;;;;;;;;;;7.60;99.90;;;;;;5031819;28;19924;-59
2023/03/18 05:27:08;;;;;;;;;;;7.60;99.90;;;;;;5032609;28;20340;-62
2023/03/18 05:29:33;;;;;;;;;;;7.60;99.90;;;;;;5035986;28;19917;-62
2023/03/18 05:31:59;;;;;;;;;;;7.60;99.90;;;;;;5031506;28;19913;-62
2023/03/18 05:34:25;;;;;;;;;;;7.60;99.90;;;;;;5034710;28;19913;-62
2023/03/18 05:36:51;;;;;;;;;;;7.60;99.90;;;;;;5033180;28;19912;-62
2023/03/18 05:39:17;;;;;;;;;;;7.60;99.90;;;;;;5032524;28;20517;-63
2023/03/18 05:41:42;;;;;;;;;;;7.60;99.90;;;;;;5030513;28;19917;-61
2023/03/18 05:44:08;;;;;;;;;;;7.70;99.90;;;;;;5029358;28;20282;-61
2023/03/18 05:46:34;;;;;;;;;;;7.80;99.90;;;;;;5029766;28;20363;-62
2023/03/18 05:48:59;;;;;;;;;;;7.80;99.90;;;;;;5013050;28;19920;-62
2023/03/18 05:51:25;;;;;;;;;;;7.80;99.90;;;;;;5035078;28;20390;-62
2023/03/18 05:53:50;;;;;;;;;;;7.90;99.90;;;;;;5030852;28;19913;-63
2023/03/18 05:56:17;;;;;;;;;;;7.90;99.90;;;;;;5027979;28;19913;-63
2023/03/18 05:58:42;;;;;;;;;;;7.90;99.90;;;;;;5030025;28;19996;-61
2023/03/18 06:01:08;;;;;;;;;;;7.80;99.90;;;;;;5027569;28;19988;-62
2023/03/18 06:03:33;;;;;;;;;;;7.70;99.90;;;;;;5032073;28;19917;-63
2023/03/18 06:06:00;;;;;;;;;;;7.60;99.90;;;;;;5031115;28;19917;-61
2023/03/18 06:08:26;;;;;;;;;;;7.60;99.90;;;;;;5030641;28;19917;-58
2023/03/18 06:10:51;;;;;;;;;;;7.60;99.90;;;;;;5032271;28;19913;-60
2023/03/18 06:13:17;;;;;;;;;;;7.50;99.90;;;;;;5028680;28;19932;-64
2023/03/18 06:15:43;;;;;;;;;;;7.50;99.90;;;;;;5007682;28;19921;-59
2023/03/18 06:18:09;;;;;;;;;;;7.60;99.90;;;;;;5034105;28;19913;-61
2023/03/18 06:20:35;;;;;;;;;;;7.60;99.90;;;;;;5031898;28;19909;-62
2023/03/18 06:23:01;;;;;;;;;;;7.70;99.90;;;;;;5030240;28;19932;-62
2023/03/18 06:25:26;;;;;;;;;;;7.70;99.90;;;;;;5030097;28;19920;-62
2023/03/18 06:27:52;;;;;;;;;;;7.70;99.90;;;;;;5032883;28;19913;-62
2023/03/18 06:30:17;;;;;;;;;;;7.70;99.90;;;;;;5027896;28;19913;-60
2023/03/18 06:32:43;;;;;;;;;;;7.70;99.90;;;;;;5032894;28;19924;-60
2023/03/18 06:35:09;;;;;;;;;;;7.80;99.90;;;;;;5032495;28;19995;-59
2023/03/18 06:37:35;;;;;;;;;;;7.80;99.90;;;;;;5030364;28;19910;-61
2023/03/18 06:40:01;;;;;;;;;;;7.90;99.90;;;;;;5030467;28;19936;-61
2023/03/18 06:42:26;;;;;;;;;;;8.00;99.90;;;;;;5027166;28;20413;-61
2023/03/18 06:44:52;;;;;;;;;;;8.00;99.90;;;;;;5028475;28;19924;-61
2023/03/18 06:47:18;;;;;;;;;;;8.20;99.90;;;;;;5032021;28;20295;-62
2023/03/18 06:49:43;;;;;;;;;;;8.30;99.90;;;;;;5031157;28;19924;-61
2023/03/18 06:52:09;;;;;;;;;;;8.50;99.90;;;;;;5036954;28;19913;-61
2023/03/18 06:54:34;;;;;;;;;;;8.70;99.90;;;;;;5028194;28;20438;-61
2023/03/18 06:57:00;;;;;;;;;;;8.80;99.90;;;;;;5028035;28;19912;-62
2023/03/18 06:59:26;;;;;;;;;;;9.00;99.90;;;;;;5029683;28;19925;-61
2023/03/18 07:01:51;;;;;;;;;;;9.30;99.90;;;;;;5030645;28;19910;-60
2023/03/18 07:04:17;;;;;;;;;;;9.50;99.90;;;;;;5026711;28;20406;-62
2023/03/18 07:06:42;;;;;;;;;;;9.70;99.90;;;;;;5027001;28;19917;-62
2023/03/18 07:09:09;;;;;;;;;;;9.90;99.90;;;;;;5026029;28;19912;-61
2023/03/18 07:11:35;;;;;;;;;;;10.30;99.90;;;;;;5033581;28;19913;-61
2023/03/18 07:14:00;;;;;;;;;;;10.50;99.90;;;;;;5027017;28;19966;-61
2023/03/18 07:16:26;;;;;;;;;;;10.50;99.90;;;;;;5025442;28;20012;-62
2023/03/18 07:18:52;;;;;;;;;;;10.60;99.90;;;;;;5027056;28;19920;-61
2023/03/18 07:21:18;;;;;;;;;;;10.60;99.90;;;;;;5026869;28;20403;-61
2023/03/18 07:23:43;;;;;;;;;;;10.60;99.90;;;;;;5009621;28;19921;-60
2023/03/18 07:26:11;;;;;;;;;;;10.70;99.90;;;;;;5025126;28;19917;-62
2023/03/18 07:28:36;;;;;;;;;;;10.70;99.90;;;;;;5021966;28;20019;-62
2023/03/18 07:31:02;;;;;;;;;;;10.80;99.90;;;;;;5027119;28;20024;-56
2023/03/18 07:33:28;;;;;;;;;;;10.70;99.90;;;;;;5025128;28;19913;-59
2023/03/18 07:35:54;;;;;;;;;;;10.80;99.90;;;;;;5027893;28;19924;-60
2023/03/18 07:38:19;;;;;;;;;;;10.90;99.90;;;;;;5027046;28;19920;-61
2023/03/18 07:40:45;;;;;;;;;;;11.00;99.90;;;;;;5027570;28;20306;-61
2023/03/18 07:43:10;;;;;;;;;;;11.10;99.90;;;;;;5026599;28;20031;-61
2023/03/18 07:45:36;;;;;;;;;;;11.20;99.90;;;;;;5022264;28;19917;-60
2023/03/18 07:48:01;;;;;;;;;;;11.40;99.90;;;;;;5025884;28;19913;-63
2023/03/18 07:50:27;;;;;;;;;;;11.50;99.90;;;;;;5025802;28;19920;-58
2023/03/18 07:52:52;;;;;;;;;;;11.60;99.90;;;;;;5025382;28;19924;-61
2023/03/18 07:55:18;;;;;;;;;;;11.60;99.90;;;;;;5028559;28;20048;-63
2023/03/18 07:57:44;;;;;;;;;;;11.70;99.90;;;;;;5027989;28;20397;-59
2023/03/18 08:00:11;;;;;;;;;;;11.90;99.90;;;;;;5024286;28;19921;-61
2023/03/18 08:02:37;;;;;;;;;;;12.00;99.90;;;;;;5027178;28;19918;-63
2023/03/18 08:05:05;;;;;;;;;;;12.10;99.90;;;;;;5021738;28;20204;-62
2023/03/18 08:07:32;;;;;;;;;;;12.20;99.90;;;;;;5024080;28;19914;-59
2023/03/18 08:09:58;;;;;;;;;;;12.20;99.90;;;;;;5027985;28;19913;-63
2023/03/18 08:12:24;;;;;;;;;;;12.20;99.90;;;;;;5026971;28;20087;-62
2023/03/18 08:14:50;;;;;;;;;;;12.30;99.90;;;;;;5019676;28;20469;-63
2023/03/18 08:17:15;;;;;;;;;;;12.30;99.90;;;;;;5021595;28;19913;-64
2023/03/18 08:19:40;;;;;;;;;;;12.40;99.90;;;;;;5024001;28;20381;-63
2023/03/18 08:22:07;;;;;;;;;;;12.40;99.90;;;;;;5030376;28;19992;-63
2023/03/18 08:24:32;;;;;;;;;;;12.50;99.90;;;;;;5019718;28;19971;-62
2023/03/18 08:26:58;;;;;;;;;;;12.60;99.90;;;;;;5024238;28;19913;-61
2023/03/18 08:29:23;;;;;;;;;;;12.60;99.90;;;;;;5028236;28;19920;-63
2023/03/18 08:31:50;;;;;;;;;;;12.70;99.90;;;;;;5026824;28;20290;-64
2023/03/18 08:34:15;;;;;;;;;;;12.70;99.90;;;;;;5026629;28;19919;-63
2023/03/18 08:36:41;;;;;;;;;;;12.80;99.90;;;;;;5021666;28;19921;-62
2023/03/18 08:39:08;;;;;;;;;;;12.80;99.90;;;;;;5029054;28;19913;-63
2023/03/18 08:41:34;;;;;;;;;;;12.90;99.90;;;;;;5029590;28;19920;-62
2023/03/18 08:44:00;;;;;;;;;;;12.90;99.90;;;;;;5024556;28;20340;-64
2023/03/18 08:46:26;;;;;;;;;;;13.00;99.90;;;;;;5024446;28;19925;-61
2023/03/18 08:48:53;;;;;;;;;;;13.10;99.90;;;;;;5027362;28;19932;-59
2023/03/18 08:51:18;;;;;;;;;;;13.20;99.90;;;;;;5033800;28;19960;-60
2023/03/18 08:53:44;;;;;;;;;;;13.30;99.90;;;;;;5029239;28;19948;-61
2023/03/18 08:56:10;;;;;;;;;;;13.40;99.90;;;;;;5026859;28;19957;-62
2023/03/18 08:58:35;;;;;;;;;;;13.40;99.90;;;;;;5027427;28;19940;-61
2023/03/18 09:01:02;;;;;;;;;;;13.40;99.90;;;;;;5009635;28;20007;-62
2023/03/18 09:03:27;;;;;;;;;;;13.40;99.90;;;;;;5023278;28;19975;-61
2023/03/18 09:05:54;;;;;;;;;;;13.40;99.90;;;;;;5027534;28;20354;-62
2023/03/18 09:08:20;;;;;;;;;;;13.50;99.90;;;;;;5028077;28;19913;-62
2023/03/18 09:10:47;;;;;;;;;;;13.60;99.90;;;;;;5028319;28;19913;-62
2023/03/18 09:13:12;;;;;;;;;;;13.60;99.90;;;;;;5026076;28;20375;-62
2023/03/18 09:15:38;;;;;;;;;;;13.70;99.90;;;;;;5030457;28;19963;-64
2023/03/18 09:18:04;;;;;;;;;;;13.70;99.90;;;;;;5028939;28;19913;-63
2023/03/18 09:20:29;;;;;;;;;;;13.80;99.90;;;;;;5027474;28;19920;-62
2023/03/18 09:22:55;;;;;;;;;;;13.80;99.90;;;;;;5029730;28;20395;-63
2023/03/18 09:25:20;;;;;;;;;;;13.90;99.90;;;;;;5024983;28;19925;-63
2023/03/18 09:27:46;;;;;;;;;;;13.90;99.90;;;;;;5028721;28;19933;-60
2023/03/18 09:30:12;;;;;;;;;;;14.00;99.90;;;;;;5030870;28;20336;-62
2023/03/18 09:32:38;;;;;;;;;;;14.10;99.90;;;;;;5022225;28;19913;-63
2023/03/18 09:35:04;;;;;;;;;;;14.10;99.90;;;;;;5023121;28;20383;-59
2023/03/18 09:37:29;;;;;;;;;;;14.20;99.90;;;;;;5024956;28;19975;-60
2023/03/18 09:39:55;;;;;;;;;;;14.30;99.90;;;;;;5021850;28;19921;-61
2023/03/18 09:42:43;;;;;;;;;;;14.30;99.90;;;;;;5029180;28;19932;-62
2023/03/18 09:45:29;;;;;;;;;;;14.30;99.90;;;;;;5024633;28;20301;-62
2023/03/18 09:48:01;;;;;;;;;;;14.40;99.90;;;;;;5029292;28;19922;-59
2023/03/18 09:50:36;;;;;;;;;;;14.50;99.90;;;;;;5029063;28;19921;-62
2023/03/18 09:53:08;;;;;;;;;;;14.60;99.90;;;;;;5029047;28;20063;-62
2023/03/18 09:55:48;;;;;;;;;;;14.70;99.90;;;;;;5027448;28;19918;-61
2023/03/18 09:58:26;;;;;;;;;;;14.90;99.90;;;;;;5022669;28;20296;-61
2023/03/18 10:00:57;;;;;;;;;;;15.00;99.90;;;;;;5023818;28;19913;-61
2023/03/18 10:03:27;;;;;;;;;;;15.10;99.90;;;;;;5028428;28;19961;-60
2023/03/18 10:06:12;;;;;;;;;;;15.20;99.90;;;;;;5025391;28;19921;-63
2023/03/18 10:08:47;;;;;;;;;;;15.30;99.90;;;;;;5034156;28;19913;-62
2023/03/18 10:11:19;;;;;;;;;;;15.50;99.90;;;;;;5027186;28;19909;-62
2023/03/18 10:13:51;;;;;;;;;;;15.70;99.90;;;;;;5027878;28;19967;-63
2023/03/18 10:16:20;;;;;;;;;;;16.00;99.90;;;;;;5028737;28;19928;-61
2023/03/18 10:18:46;;;;;;;;;;;16.10;99.90;;;;;;5028763;28;19936;-60
2023/03/18 10:21:35;;;;;;;;;;;16.20;99.90;;;;;;5027065;28;20368;-61
2023/03/18 10:24:22;;;;;;;;;;;16.20;99.90;;;;;;5025445;28;19917;-61
2023/03/18 10:26:49;;;;;;;;;;;16.50;99.90;;;;;;5027305;28;19917;-61
2023/03/18 10:29:27;;;;;;;;;;;16.60;99.90;;;;;;5030073;28;19917;-61
2023/03/18 10:31:56;;;;;;;;;;;16.80;99.90;;;;;;5026289;28;19909;-61
2023/03/18 10:34:23;;;;;;;;;;;17.00;99.90;;;;;;5028558;28;20022;-61
2023/03/18 10:36:48;;;;;;;;;;;17.00;99.90;;;;;;5023335;28;20438;-62
2023/03/18 10:39:15;;;;;;;;;;;17.10;99.90;;;;;;5025976;28;20000;-61
2023/03/18 10:41:42;;;;;;;;;;;16.80;99.90;;;;;;5031426;28;19931;-61
2023/03/18 10:44:19;;;;;;;;;;;17.20;99.90;;;;;;5027711;28;19913;-59
2023/03/18 10:46:46;;;;;;;;;;;17.30;99.90;;;;;;5025660;28;19913;-61
2023/03/18 10:49:24;;;;;;;;;;;17.70;99.90;;;;;;5025463;28;20004;-62
2023/03/18 10:51:53;;;;;;;;;;;17.80;99.90;;;;;;5022617;28;20398;-62
2023/03/18 10:54:23;;;;;;;;;;;17.70;99.90;;;;;;5021677;28;19913;-62
2023/03/18 10:56:49;;;;;;;;;;;17.80;99.90;;;;;;5023645;28;20406;-63
2023/03/18 10:59:17;;;;;;;;;;;18.10;99.90;;;;;;5023053;28;20000;-61
2023/03/18 11:01:52;;;;;;;;;;;18.20;99.90;;;;;;5025653;28;19913;-62
2023/03/18 11:04:20;;;;;;;;;;;18.40;99.90;;;;;;5023630;28;20073;-61
2023/03/18 11:06:57;;;;;;;;;;;18.60;99.90;;;;;;5022786;28;20003;-61
2023/03/18 11:09:38;;;;;;;;;;;18.70;99.90;;;;;;5025101;28;20390;-61
2023/03/18 11:12:24;;;;;;;;;;;18.70;99.90;;;;;;5029728;28;19920;-61
2023/03/18 11:14:50;;;;;;;;;;;18.70;99.90;;;;;;5018380;28;20395;-62
2023/03/18 11:17:26;;;;;;;;;;;18.90;99.90;;;;;;5024547;28;19921;-61
2023/03/18 11:20:10;;;;;;;;;;;18.90;99.90;;;;;;5026725;28;19913;-62
2023/03/18 11:22:36;;;;;;;;;;;19.00;99.90;;;;;;5028776;28;20046;-60
2023/03/18 11:25:15;;;;;;;;;;;19.00;99.90;;;;;;5029028;28;20355;-61
2023/03/18 11:27:42;;;;;;;;;;;18.50;99.90;;;;;;5024826;28;20420;-61
2023/03/18 11:30:16;;;;;;;;;;;18.50;99.90;;;;;;5019528;28;19917;-62
2023/03/18 11:32:51;;;;;;;;;;;18.30;99.90;;;;;;5022418;28;19921;-62
2023/03/18 11:35:18;;;;;;;;;;;18.10;99.90;;;;;;5027455;28;19916;-63
2023/03/18 11:37:45;;;;;;;;;;;18.30;99.90;;;;;;5029398;28;19917;-62
2023/03/18 11:40:11;;;;;;;;;;;18.00;99.90;;;;;;5024262;28;20008;-63
2023/03/18 11:42:37;;;;;;;;;;;18.00;99.90;;;;;;5028638;28;19915;-62
2023/03/18 11:45:17;;;;;;;;;;;17.80;99.90;;;;;;5021473;28;20275;-61
2023/03/18 11:47:43;;;;;;;;;;;17.70;99.90;;;;;;5026005;28;19910;-62
2023/03/18 11:50:15;;;;;;;;;;;17.80;99.90;;;;;;5029454;28;19967;-60
2023/03/18 11:52:54;;;;;;;;;;;18.10;99.90;;;;;;5029518;28;19997;-62
2023/03/18 11:55:35;;;;;;;;;;;18.40;99.90;;;;;;5024537;28;19909;-62
2023/03/18 11:58:03;;;;;;;;;;;18.50;99.90;;;;;;5028104;28;19916;-63
2023/03/18 12:00:37;;;;;;;;;;;18.60;99.90;;;;;;5027962;28;19947;-61
2023/03/18 12:03:09;;;;;;;;;;;18.70;99.90;;;;;;5029910;28;19917;-62
2023/03/18 12:05:50;;;;;;;;;;;19.00;99.90;;;;;;5026612;28;19920;-62
2023/03/18 12:08:27;;;;;;;;;;;18.80;99.90;;;;;;5028755;28;20371;-62
2023/03/18 12:11:04;;;;;;;;;;;18.80;99.90;;;;;;5026585;28;19916;-62
2023/03/18 12:13:30;;;;;;;;;;;19.00;99.90;;;;;;5027483;28;19913;-61
2023/03/18 12:16:15;;;;;;;;;;;19.00;99.90;;;;;;5030940;28;19931;-62
2023/03/18 12:18:44;;;;;;;;;;;18.80;99.90;;;;;;5023585;28;19909;-61
2023/03/18 12:21:18;;;;;;;;;;;18.70;99.90;;;;;;5036183;28;20533;-60
2023/03/18 12:23:46;;;;;;;;;;;18.60;99.90;;;;;;5027803;28;19952;-57
2023/03/18 12:26:33;;;;;;;;;;;18.70;99.90;;;;;;5030218;28;19913;-62
2023/03/18 12:29:23;;;;;;;;;;;18.80;99.90;;;;;;5030324;28;20362;-62
2023/03/18 12:31:49;;;;;;;;;;;19.10;99.90;;;;;;5036787;28;19909;-63
2023/03/18 12:34:17;;;;;;;;;;;19.20;99.90;;;;;;5034440;28;19915;-61
2023/03/18 12:36:55;;;;;;;;;;;19.10;99.90;;;;;;5034226;28;20047;-62
2023/03/18 12:39:26;;;;;;;;;;;19.10;99.90;;;;;;5027480;28;19909;-62
2023/03/18 12:42:01;;;;;;;;;;;18.70;99.90;;;;;;5029453;28;19932;-59
2023/03/18 12:44:39;;;;;;;;;;;18.80;99.90;;;;;;5031112;28;19979;-61
2023/03/18 12:47:07;;;;;;;;;;;18.50;99.90;;;;;;5033365;28;19956;-59
2023/03/18 12:49:37;;;;;;;;;;;18.40;99.90;;;;;;5043474;28;19909;-61
2023/03/18 12:52:03;;;;;;;;;;;18.50;99.90;;;;;;5033419;28;20153;-58
2023/03/18 12:54:44;;;;;;;;;;;18.30;99.90;;;;;;5032183;28;19962;-59
2023/03/18 12:57:19;;;;;;;;;;;18.20;99.90;;;;;;5033033;28;19913;-60
2023/03/18 12:59:48;;;;;;;;;;;18.00;99.90;;;;;;5032016;28;20335;-62
2023/03/18 13:02:30;;;;;;;;;;;17.70;99.90;;;;;;5028427;28;19921;-58
2023/03/18 13:05:00;;;;;;;;;;;17.70;99.90;;;;;;5032161;28;19913;-60
2023/03/18 13:07:35;;;;;;;;;;;17.60;99.90;;;;;;5033130;28;19928;-61
2023/03/18 13:10:20;;;;;;;;;;;17.60;99.90;;;;;;5030761;28;19916;-62
2023/03/18 13:12:47;;;;;;;;;;;17.40;99.90;;;;;;5032999;28;19921;-60
2023/03/18 13:15:32;;;;;;;;;;;17.40;99.90;;;;;;5034049;28;20000;-62
2023/03/18 13:18:20;;;;;;;;;;;17.40;99.90;;;;;;5031099;28;19968;-61
2023/03/18 13:20:46;;;;;;;;;;;17.30;99.90;;;;;;5022192;28;19916;-60
2023/03/18 13:23:27;;;;;;;;;;;17.30;99.90;;;;;;5028274;28;20359;-60
2023/03/18 13:26:01;;;;;;;;;;;17.20;99.90;;;;;;5033784;28;19928;-61
2023/03/18 13:28:27;;;;;;;;;;;17.30;99.90;;;;;;5028616;28;20428;-61
2023/03/18 13:31:11;;;;;;;;;;;17.30;99.90;;;;;;5033680;28;19992;-61
2023/03/18 13:33:53;;;;;;;;;;;17.30;99.90;;;;;;5026704;28;19970;-61
2023/03/18 13:36:44;;;;;;;;;;;17.30;99.90;;;;;;5027377;28;20039;-61
2023/03/18 13:39:25;;;;;;;;;;;17.20;99.90;;;;;;5027407;28;19915;-62
2023/03/18 13:42:11;;;;;;;;;;;17.20;99.90;;;;;;5030678;28;19921;-61
2023/03/18 13:44:41;;;;;;;;;;;17.00;99.90;;;;;;5029948;28;19917;-60
2023/03/18 13:47:08;;;;;;;;;;;17.00;99.90;;;;;;5033510;28;19991;-61
2023/03/18 13:49:36;;;;;;;;;;;16.90;99.90;;;;;;5029112;28;20016;-61
2023/03/18 13:52:03;;;;;;;;;;;16.70;99.90;;;;;;5027407;28;20401;-61
2023/03/18 13:54:36;;;;;;;;;;;16.60;99.90;;;;;;5029282;28;19909;-62
2023/03/18 13:57:15;;;;;;;;;;;16.50;99.90;;;;;;5027582;28;19964;-58
2023/03/18 13:59:41;;;;;;;;;;;16.30;99.90;;;;;;5032008;28;19921;-61
2023/03/18 14:02:27;;;;;;;;;;;16.30;99.90;;;;;;5028877;28;20275;-61
2023/03/18 14:04:52;;;;;;;;;;;16.20;99.90;;;;;;5031876;28;19917;-61
2023/03/18 14:07:18;;;;;;;;;;;16.10;99.90;;;;;;5028495;28;19909;-59
2023/03/18 14:09:53;;;;;;;;;;;16.20;99.90;;;;;;5025282;28;19913;-61
2023/03/18 14:12:21;;;;;;;;;;;16.10;99.90;;;;;;5023367;28;20294;-59
2023/03/18 14:14:46;;;;;;;;;;;16.00;99.90;;;;;;5030061;28;20366;-60
2023/03/18 14:17:24;;;;;;;;;;;15.80;99.90;;;;;;5030557;28;19909;-58
2023/03/18 14:19:54;;;;;;;;;;;15.90;99.90;;;;;;5029750;28;19928;-61
2023/03/18 14:22:22;;;;;;;;;;;15.90;99.90;;;;;;5027960;28;19909;-60
2023/03/18 14:25:07;;;;;;;;;;;15.90;99.90;;;;;;5027537;28;19966;-60
2023/03/18 14:27:43;;;;;;;;;;;15.80;99.90;;;;;;5028301;28;19909;-61
2023/03/18 14:30:44;;;;;;;;;;;15.80;99.90;;;;;;5026968;28;20405;-62